Boyce, LA (71409)

5:49 PM CST on February 06, 2016 (GMT -0600)
Downs Lane | | Change Station
CLOSE
Current Station
Personal Weather Station
Location: Alexandria, LA
Elevation: 69 ft
Nearby Weather Stations

Elev 69 ft 31.28 °N, 92.57 °W | Updated 5 minutes ago

Mostly Cloudy
Mostly Cloudy
50.9 °F
Feels Like 50.9 °F
N
4.2
Wind Variable Wind from NNW

Today
High -- | Low -- °F
--% Chance of Precip.
Yesterday
High -- | Low -- °F
Precip. -- in
Pressure 30.29 in
Visibility 10.0 miles
Clouds Clear
Dew Point 39 °F
Humidity 64%
Rainfall 0.00 in
Snow Depth Not available.
7:00 AM 5:50 PM
Waning Crescent, 3% visible
METAR KAEX 062253Z AUTO 31003KT 10SM CLR 12/M02 A3027 RMK AO2 SLP256 T01221022 TSNO
Pressure 30.29 in
Visibility 10.0 miles
Clouds Clear
Dew Point 39 °F
Humidity 64%
Rainfall 0.00 in
Snow Depth Not available.
7:00 AM 5:50 PM
Waning Crescent, 3% visible
METAR KAEX 062253Z AUTO 31003KT 10SM CLR 12/M02 A3027 RMK AO2 SLP256 T01221022 TSNO

10-Day Weather Forecast

Almanac

Astronomy

Feb. 06, 2016 Rise Set
Actual Time
Civil Twilight
Nautical Twilight
Astronomical Twilight
Moon
Length of Visible Light
Length of Day
Tomorrow will be .
, % of the Moon is Illuminated

Today's Extremes

State Highs State Lows

Community

WunderPhotos

Upload Photos

1,891,098 photos uploaded!

WunderBlog® & News

Nearby

Air Quality

  Air Quality AQ Index Pollutant
Not available.

Snow Depth

Station Depth Elevation

Earthquake Activity

City Distance Mag. Time & Date
Minimum magnitude displayed is 2.5.

Coastal Water Temperatures

Place Temperature

Stations

Nearby Weather Stations

Station Location Temp. Windchill Dew Point Humidity Wind Precip. Elev Updated Type
                   

Watches & Warnings

There are currently no watches in effect.